Time;durP1;ratioP1;P1;durP2;ratioP2;P2;SDS_P1;SDS_P2;PMS_P1;PMS_P2;Temp;Humidity;BMP_temperature;BMP_pressure;BME280_temperature;BME280_humidity;BME280_pressure;Samples;Min_cycle;Max_cycle;Signal;HPM_P1;HPM_P2
2022/08/18 00:01:18;;;;;;;;;9.00;9.00;;;;;20.47;86.65;100688.25;5088531;27;46240;-86
2022/08/18 00:03:44;;;;;;;;;8.00;8.00;;;;;20.49;86.77;100689.16;5090960;27;45823;-87
2022/08/18 00:06:10;;;;;;;;;10.00;9.75;;;;;20.50;86.39;100693.59;5091933;28;45027;-90
2022/08/18 00:08:35;;;;;;;;;8.00;7.50;;;;;20.38;86.21;100687.41;5092182;27;44987;-91
2022/08/18 00:11:00;;;;;;;;;9.67;9.00;;;;;20.38;86.39;100687.41;5106382;27;62551;-89
2022/08/18 00:13:26;;;;;;;;;9.00;9.00;;;;;20.38;86.46;100690.97;5091569;27;54229;-90
2022/08/18 00:15:52;;;;;;;;;11.75;10.50;;;;;20.31;87.06;100682.13;5089122;28;45213;-88
2022/08/18 00:18:17;;;;;;;;;10.25;10.00;;;;;20.23;86.99;100665.25;5094457;27;45167;-87
2022/08/18 00:20:43;;;;;;;;;12.00;11.25;;;;;20.23;86.67;100657.25;5111180;27;46931;-89
2022/08/18 00:23:08;;;;;;;;;9.75;9.50;;;;;20.27;87.11;100672.34;5111309;27;45095;-88
2022/08/18 00:25:33;;;;;;;;;8.00;8.00;;;;;20.33;86.97;100671.41;5109359;27;47383;-87
2022/08/18 00:27:59;;;;;;;;;9.00;9.00;;;;;20.31;86.87;100673.22;5094530;27;45123;-89
2022/08/18 00:30:24;;;;;;;;;11.25;10.50;;;;;20.19;86.72;100651.94;5110460;27;47107;-88
2022/08/18 00:32:55;;;;;;;;;11.00;10.25;;;;;20.16;86.87;100643.97;5111073;27;45156;-88
2022/08/18 00:35:34;;;;;;;;;9.00;9.00;;;;;20.42;86.54;100692.72;5095698;27;45005;-88
2022/08/18 00:38:02;;;;;;;;;8.75;8.25;;;;;20.13;86.65;100636.84;5093781;27;45263;-88
2022/08/18 00:40:43;;;;;;;;;11.00;9.25;;;;;20.19;86.87;100652.81;5093820;27;45984;-88
2022/08/18 00:43:16;;;;;;;;;11.50;10.50;;;;;20.41;86.32;100695.41;5095099;27;45473;-88
2022/08/18 00:45:42;;;;;;;;;12.75;11.25;;;;;20.29;86.40;100683.88;5092074;27;45379;-90
2022/08/18 00:48:09;;;;;;;;;9.75;9.00;;;;;20.33;86.30;100701.66;5093974;28;44931;-87
2022/08/18 00:50:47;;;;;;;;;8.50;7.00;;;;;20.26;86.54;100699.94;5095070;27;45667;-90
2022/08/18 00:53:26;;;;;;;;;9.25;9.25;;;;;20.32;86.24;100710.56;5110380;27;45030;-90
2022/08/18 00:55:53;;;;;;;;;10.00;10.00;;;;;20.17;86.21;100680.41;5109329;27;45022;-88
2022/08/18 00:58:25;;;;;;;;;12.00;10.75;;;;;20.20;86.35;100677.75;5109045;27;45390;-88
2022/08/18 01:00:51;;;;;;;;;10.75;10.75;;;;;20.25;86.31;100681.28;5110817;27;47788;-89
2022/08/18 01:03:20;;;;;;;;;10.75;10.00;;;;;20.34;86.17;100698.13;5095573;28;44960;-88
2022/08/18 01:06:00;;;;;;;;;9.00;9.00;;;;;20.25;86.36;100686.63;5093826;27;45093;-90
2022/08/18 01:08:29;;;;;;;;;12.00;11.25;;;;;20.16;86.62;100692.88;5095099;27;45091;-89
2022/08/18 01:10:56;;;;;;;;;10.00;10.00;;;;;20.25;86.27;100708.84;5109068;27;47162;-88
2022/08/18 01:13:26;;;;;;;;;7.50;6.50;;;;;20.09;86.10;100681.34;5095081;28;45074;-89
2022/08/18 01:15:51;;;;;;;;;12.00;10.50;;;;;20.05;86.60;100676.06;5093714;27;45253;-89
2022/08/18 01:24:11;;;;;;;;;9.75;9.75;;;;;20.01;86.59;100691.19;5094782;28;45651;-88
2022/08/18 01:26:44;;;;;;;;;12.75;12.00;;;;;19.99;86.70;100694.72;5108674;27;45118;-90
2022/08/18 01:29:10;;;;;;;;;11.75;11.25;;;;;19.99;86.39;100698.28;5092751;28;45229;-88
2022/08/18 01:31:37;;;;;;;;;9.25;9.00;;;;;20.05;86.76;100706.28;5094557;27;45369;-89
2022/08/18 01:34:09;;;;;;;;;9.50;9.50;;;;;19.91;86.63;100692.13;5109948;27;45341;-90
2022/08/18 01:36:39;;;;;;;;;11.75;11.75;;;;;20.01;86.59;100711.66;5109029;27;45011;-90
2022/08/18 01:39:07;;;;;;;;;10.00;10.00;;;;;19.99;86.69;100700.06;5093971;27;44960;-88
2022/08/18 01:41:32;;;;;;;;;9.75;9.00;;;;;19.94;87.13;100688.53;5089860;28;46958;-89
2022/08/18 01:43:59;;;;;;;;;11.50;11.50;;;;;20.04;86.78;100700.94;5094705;27;45096;-90
2022/08/18 01:46:26;;;;;;;;;15.00;14.50;;;;;19.81;86.49;100664.59;5093474;27;45107;-89
2022/08/18 01:48:52;;;;;;;;;14.75;13.75;;;;;19.88;86.83;100684.13;5094654;28;45198;-89
2022/08/18 01:51:19;;;;;;;;;14.25;14.25;;;;;19.95;86.46;100695.63;5094283;27;45715;-89
2022/08/18 01:53:45;;;;;;;;;12.75;12.75;;;;;19.93;86.97;100686.78;5110418;27;45127;-89
2022/08/18 01:56:11;;;;;;;;;12.50;11.75;;;;;19.86;86.25;100679.69;5091041;28;44993;-87
2022/08/18 01:58:37;;;;;;;;;12.25;12.25;;;;;19.89;86.47;100698.34;5093408;28;45020;-88
2022/08/18 02:01:03;;;;;;;;;14.25;13.50;;;;;19.88;86.77;100696.56;5091704;28;47328;-89
2022/08/18 02:03:35;;;;;;;;;11.50;11.50;;;;;19.86;86.71;100704.59;5092740;28;45635;-88
2022/08/18 02:06:03;;;;;;;;;13.00;11.00;;;;;19.79;86.79;100687.69;5091366;28;45091;-90
2022/08/18 02:08:29;;;;;;;;;14.75;13.75;;;;;19.62;86.89;100657.56;5092412;28;45065;-87
2022/08/18 02:10:57;;;;;;;;;15.50;15.00;;;;;19.83;86.91;100694.81;5103563;27;47155;-89
2022/08/18 02:13:22;;;;;;;;;12.50;11.25;;;;;19.73;86.91;100681.53;5073743;28;45466;-88
2022/08/18 02:15:48;;;;;;;;;11.50;10.75;;;;;19.71;87.32;100669.97;5104727;27;45472;-90
2022/08/18 02:18:20;;;;;;;;;14.50;14.00;;;;;19.90;87.07;100697.44;5073726;28;44941;-90
2022/08/18 02:20:46;;;;;;;;;15.50;13.25;;;;;19.80;86.79;100686.84;5072469;28;45486;-90
2022/08/18 02:23:12;;;;;;;;;10.00;10.00;;;;;19.84;86.89;100691.25;5073502;28;45109;-89
2022/08/18 02:25:37;;;;;;;;;13.25;13.25;;;;;19.72;86.83;100677.97;5071656;28;45011;-90
2022/08/18 02:28:04;;;;;;;;;11.75;11.75;;;;;19.83;86.92;100700.13;5073242;28;45239;-90
2022/08/18 02:30:30;;;;;;;;;14.00;12.00;;;;;19.72;87.00;100685.97;5073201;28;45431;-90
2022/08/18 02:32:58;;;;;;;;;11.25;11.25;;;;;19.78;86.28;100687.72;5073421;28;44965;-90
2022/08/18 02:35:24;;;;;;;;;15.00;14.00;;;;;19.80;86.35;100681.50;5072380;28;45110;-89
2022/08/18 02:37:49;;;;;;;;;13.75;12.00;;;;;19.88;86.57;100700.13;5104063;27;45321;-88
2022/08/18 02:40:16;;;;;;;;;12.50;12.50;;;;;19.77;86.49;100673.50;5070034;28;45210;-90
2022/08/18 02:42:42;;;;;;;;;12.00;11.25;;;;;19.85;86.62;100697.47;5071633;28;45471;-87
2022/08/18 02:45:08;;;;;;;;;13.00;12.00;;;;;19.86;86.49;100701.94;5073083;28;44901;-89
2022/08/18 02:47:33;;;;;;;;;14.50;14.00;;;;;19.91;86.66;100718.81;5106037;27;45221;-88
2022/08/18 02:49:59;;;;;;;;;10.75;10.25;;;;;19.74;86.06;100676.16;5072862;28;45188;-88
2022/08/18 02:52:33;;;;;;;;;16.50;15.25;;;;;19.78;86.27;100683.28;5104279;27;45975;-89
2022/08/18 02:55:02;;;;;;;;;13.00;12.25;;;;;19.74;86.15;100673.50;5106134;27;45031;-88
2022/08/18 02:57:29;;;;;;;;;12.75;12.75;;;;;19.87;86.27;100698.34;5103706;27;45296;-88
2022/08/18 02:59:54;;;;;;;;;14.00;12.00;;;;;19.77;86.58;100694.84;5105765;27;47236;-89
2022/08/18 03:02:26;;;;;;;;;13.75;12.00;;;;;19.63;86.27;100675.34;5103616;27;51087;-90
2022/08/18 03:04:51;;;;;;;;;11.50;11.50;;;;;19.67;86.13;100678.88;5105568;27;45163;-89
2022/08/18 03:07:17;;;;;;;;;14.50;13.75;;;;;19.76;86.57;100686.84;5072366;28;45162;-89
2022/08/18 03:09:42;;;;;;;;;12.00;11.50;;;;;19.78;86.29;100685.94;5072552;28;45790;-89
2022/08/18 03:12:08;;;;;;;;;13.00;12.75;;;;;19.76;86.81;100695.75;5071017;28;45248;-90
2022/08/18 03:14:36;;;;;;;;;15.75;14.50;;;;;19.77;86.86;100694.84;5072385;28;45028;-90
2022/08/18 03:17:04;;;;;;;;;19.00;16.00;;;;;19.70;87.10;100676.19;5071184;28;45053;-89
2022/08/18 03:19:30;;;;;;;;;16.00;15.75;;;;;19.76;86.48;100684.19;5072916;28;45486;-90
2022/08/18 03:21:58;;;;;;;;;15.00;13.75;;;;;19.67;87.21;100673.56;5070822;28;45243;-90
2022/08/18 03:24:24;;;;;;;;;15.00;13.50;;;;;19.70;87.41;100677.06;5073234;28;45099;-87
2022/08/18 03:26:51;;;;;;;;;15.50;13.50;;;;;19.72;87.43;100691.31;5102939;27;45411;-87
2022/08/18 03:29:17;;;;;;;;;14.25;14.25;;;;;19.56;87.06;100665.56;5088227;28;47496;-91
2022/08/18 03:31:44;;;;;;;;;15.00;14.50;;;;;19.68;87.62;100689.53;5072720;28;45163;-89
2022/08/18 03:34:10;;;;;;;;;14.75;13.75;;;;;19.37;87.85;100647.84;5070792;28;45314;-88
2022/08/18 03:36:36;;;;;;;;;13.25;12.75;;;;;19.70;87.71;100692.19;5071179;28;45631;-88
2022/08/18 03:39:08;;;;;;;;;16.00;13.75;;;;;19.69;87.55;100701.09;5072034;28;45388;-87
2022/08/18 03:41:37;;;;;;;;;13.00;13.00;;;;;19.67;87.95;100708.22;5070105;28;45094;-89
2022/08/18 03:44:02;;;;;;;;;15.25;14.75;;;;;19.67;88.06;100705.56;5088511;28;45134;-90
2022/08/18 03:46:28;;;;;;;;;15.00;14.00;;;;;19.82;87.71;100698.38;5071436;28;45252;-88
2022/08/18 03:48:56;;;;;;;;;13.00;13.00;;;;;19.95;86.48;100701.88;5072199;28;45077;-89
2022/08/18 03:51:28;;;;;;;;;17.50;17.00;;;;;19.67;86.53;100663.78;5097508;27;45413;-89
2022/08/18 03:53:59;;;;;;;;;14.75;14.50;;;;;19.75;86.62;100682.38;5086149;28;45135;-89
2022/08/18 03:56:29;;;;;;;;;13.50;13.00;;;;;19.65;86.64;100662.88;5103721;27;45126;-90
2022/08/18 03:58:57;;;;;;;;;17.25;15.25;;;;;19.70;86.65;100674.41;5107245;27;47524;-90
2022/08/18 04:01:27;;;;;;;;;19.75;17.50;;;;;19.78;86.72;100701.06;5089463;28;45498;-87
2022/08/18 04:03:56;;;;;;;;;14.75;14.25;;;;;19.75;86.80;100693.97;5108416;27;44987;-87
2022/08/18 04:06:29;;;;;;;;;16.50;15.75;;;;;19.54;86.82;100662.88;5106878;27;44922;-88
2022/08/18 04:08:57;;;;;;;;;15.25;14.00;;;;;19.73;86.63;100687.72;5091991;27;45704;-88
2022/08/18 04:11:24;;;;;;;;;14.50;14.25;;;;;19.78;86.85;100690.38;5090522;27;45448;-89
2022/08/18 04:13:50;;;;;;;;;14.25;13.25;;;;;19.59;86.51;100658.44;5108740;27;45347;-86
2022/08/18 04:16:16;;;;;;;;;15.00;14.50;;;;;19.81;87.15;100693.06;5091518;27;45281;-88
2022/08/18 04:18:41;;;;;;;;;15.50;14.25;;;;;19.52;86.70;100629.13;5090746;28;45242;-89
2022/08/18 04:21:09;;;;;;;;;16.25;15.00;;;;;19.85;86.61;100689.44;5107486;27;45164;-90
2022/08/18 04:23:37;;;;;;;;;13.75;13.50;;;;;19.64;86.44;100654.88;5091847;27;44942;-89
2022/08/18 04:26:05;;;;;;;;;16.25;16.25;;;;;19.53;87.28;100652.22;5089994;27;45382;-88
2022/08/18 04:28:31;;;;;;;;;17.75;16.00;;;;;19.84;86.78;100685.91;5090699;28;47426;-89
2022/08/18 04:30:58;;;;;;;;;14.00;13.50;;;;;19.77;86.04;100672.63;5091543;27;45144;-90
2022/08/18 04:33:25;;;;;;;;;14.00;13.75;;;;;19.72;86.25;100664.63;5091989;27;44958;-87
2022/08/18 04:35:50;;;;;;;;;14.75;14.75;;;;;19.46;87.33;100685.16;5103680;27;45217;-89
2022/08/18 04:38:15;;;;;;;;;15.25;14.00;;;;;19.18;87.92;100639.91;5107417;27;47267;-88
2022/08/18 04:40:41;;;;;;;;;13.50;12.50;;;;;19.19;88.01;100648.78;5089087;27;45395;-90
2022/08/18 04:43:14;;;;;;;;;15.25;15.25;;;;;19.21;87.52;100658.56;5092087;27;45013;-90
2022/08/18 04:45:46;;;;;;;;;16.50;16.25;;;;;19.17;87.58;100662.09;5090565;28;45008;-88
2022/08/18 04:48:12;;;;;;;;;15.50;15.00;;;;;19.26;87.84;100685.16;5090404;28;47387;-86
2022/08/18 04:50:38;;;;;;;;;15.25;15.25;;;;;19.36;87.95;100694.03;5089266;28;45155;-89
2022/08/18 04:55:51;;;;;;;;;16.00;15.75;;;;;19.23;88.20;100685.19;5090052;28;45092;-88
2022/08/18 04:58:17;;;;;;;;;16.25;14.50;;;;;19.27;88.34;100701.16;5090718;27;45829;-87
2022/08/18 05:00:44;;;;;;;;;13.75;13.75;;;;;19.17;88.07;100687.88;5091420;27;45123;-90
2022/08/18 05:03:10;;;;;;;;;13.75;12.25;;;;;19.04;88.23;100674.56;5090200;27;45248;-88
2022/08/18 05:05:35;;;;;;;;;15.25;14.25;;;;;19.17;88.48;100703.84;5092949;28;45482;-87
2022/08/18 05:08:01;;;;;;;;;15.50;14.75;;;;;19.20;88.69;100712.72;5093563;28;45334;-90
2022/08/18 05:10:26;;;;;;;;;16.75;16.00;;;;;19.15;88.62;100708.28;5126128;27;45379;-86
2022/08/18 05:12:51;;;;;;;;;15.75;15.25;;;;;19.04;88.11;100690.53;5093982;27;45021;-89
2022/08/18 05:15:17;;;;;;;;;17.75;16.50;;;;;19.19;88.56;100718.06;5093261;27;45003;-89
2022/08/18 05:17:43;;;;;;;;;16.75;16.25;;;;;19.13;88.00;100710.97;5094590;27;46061;-88
2022/08/18 05:20:09;;;;;;;;;12.00;11.00;;;;;19.05;88.43;100697.63;5094854;27;45110;-87
2022/08/18 05:22:40;;;;;;;;;15.50;14.75;;;;;19.22;88.08;100729.59;5092584;28;45039;-87
2022/08/18 05:25:09;;;;;;;;;15.50;13.75;;;;;19.24;88.12;100732.25;5110208;27;45115;-88
2022/08/18 05:27:36;;;;;;;;;14.75;13.25;;;;;19.13;88.54;100716.28;5093407;28;45336;-87
2022/08/18 05:30:03;;;;;;;;;15.75;14.75;;;;;19.17;88.43;100722.50;5109798;27;45919;-87
2022/08/18 05:32:42;;;;;;;;;17.00;15.50;;;;;19.26;88.32;100730.47;5094738;27;45098;-90
2022/08/18 05:35:36;;;;;;;;;16.00;15.75;;;;;19.66;86.54;100735.78;5093259;28;45244;-89
2022/08/18 05:38:38;;;;;;;;;14.00;14.00;;;;;19.73;86.44;100737.53;5090655;27;45393;-89
2022/08/18 05:41:31;;;;;;;;;16.00;15.75;;;;;19.76;86.62;100734.84;5082118;27;45425;-90
2022/08/18 05:43:57;;;;;;;;;16.50;15.50;;;;;19.62;85.82;100718.91;5093894;27;45222;-90
2022/08/18 05:46:36;;;;;;;;;19.50;16.25;;;;;19.54;86.67;100715.31;5108311;27;45120;-89
2022/08/18 05:49:03;;;;;;;;;13.75;13.00;;;;;19.61;86.71;100746.47;5094009;27;45244;-89
2022/08/18 05:51:34;;;;;;;;;15.75;14.75;;;;;19.41;87.64;100759.78;5092033;27;45096;-91
2022/08/18 05:56:52;;;;;;;;;15.50;15.50;;;;;19.39;88.31;100756.22;5093264;28;45015;-90
2022/08/18 05:59:30;;;;;;;;;17.00;15.75;;;;;19.32;88.42;100747.34;5109514;27;46067;-91
2022/08/18 06:02:11;;;;;;;;;15.75;13.75;;;;;19.39;87.79;100756.22;5092689;28;45893;-89
2022/08/18 06:04:50;;;;;;;;;15.25;14.00;;;;;19.16;87.88;100718.97;5093877;27;44892;-89
2022/08/18 06:07:25;;;;;;;;;15.25;15.00;;;;;19.26;88.13;100738.47;5094045;27;45046;-90
2022/08/18 06:09:52;;;;;;;;;16.50;15.50;;;;;19.49;87.77;100775.75;5094144;28;45643;-91
2022/08/18 06:12:24;;;;;;;;;17.25;16.75;;;;;19.53;87.51;100769.53;5091257;27;45187;-90
2022/08/18 06:14:51;;;;;;;;;17.25;14.50;;;;;19.40;87.03;100746.44;5093709;27;44913;-88
2022/08/18 06:17:35;;;;;;;;;18.25;17.50;;;;;19.51;87.33;100766.88;5091049;27;45368;-90
2022/08/18 06:20:03;;;;;;;;;14.00;14.00;;;;;19.52;87.86;100768.66;5093598;27;45205;-89
2022/08/18 06:22:47;;;;;;;;;15.75;15.50;;;;;19.56;88.48;100766.88;5092603;27;45523;-90
2022/08/18 06:25:36;;;;;;;;;21.50;21.00;;;;;19.50;88.44;100757.09;5108402;27;45077;-89
2022/08/18 06:28:14;;;;;;;;;16.75;16.75;;;;;19.46;89.11;100750.00;5093984;27;44934;-89
2022/08/18 06:31:12;;;;;;;;;17.25;16.75;;;;;19.75;89.20;100779.31;5093485;28;45627;-89
2022/08/18 06:33:43;;;;;;;;;16.50;15.75;;;;;19.86;89.63;100776.59;5085679;27;45063;-87
2022/08/18 06:36:14;;;;;;;;;23.25;21.00;;;;;19.84;89.30;100754.38;5090381;27;45079;-88
2022/08/18 06:39:02;;;;;;;;;18.25;17.25;;;;;20.03;89.27;100771.22;5092639;28;45003;-88
2022/08/18 06:41:38;;;;;;;;;21.25;20.25;;;;;20.23;89.21;100780.00;5092222;27;45149;-90
2022/08/18 06:44:08;;;;;;;;;23.00;22.00;;;;;20.36;89.19;100787.09;5091011;27;45104;-90
2022/08/18 06:46:47;;;;;;;;;22.50;21.50;;;;;20.43;88.69;100776.38;5093938;27;44962;-88
2022/08/18 06:49:31;;;;;;;;;18.25;17.25;;;;;20.60;88.59;100780.75;5092203;28;45026;-90
2022/08/18 06:51:56;;;;;;;;;16.75;16.00;;;;;20.56;87.84;100760.31;5090733;28;45419;-88
2022/08/18 06:54:28;;;;;;;;;26.75;26.25;;;;;20.61;87.54;100763.84;5093221;27;44865;-90
2022/08/18 06:56:55;;;;;;;;;21.75;21.00;;;;;20.75;87.28;100778.91;5088783;27;45349;-91
2022/08/18 06:59:28;;;;;;;;;23.50;23.00;;;;;20.77;86.32;100788.66;5093271;27;45027;-88
2022/08/18 07:02:06;;;;;;;;;17.75;17.00;;;;;20.78;86.33;100784.19;5092984;27;45247;-87
2022/08/18 07:04:38;;;;;;;;;22.25;20.00;;;;;20.72;86.56;100786.91;5109064;27;45204;-90
2022/08/18 07:07:13;;;;;;;;;24.25;23.00;;;;;20.78;86.97;100786.88;5091369;28;45042;-88
2022/08/18 07:09:39;;;;;;;;;23.50;22.50;;;;;20.71;87.19;100786.03;5093280;27;45225;-89
2022/08/18 07:12:08;;;;;;;;;22.25;21.50;;;;;20.78;87.29;100781.53;5106063;27;64255;-90
2022/08/18 07:14:49;;;;;;;;;26.00;24.25;;;;;20.77;87.37;100791.31;5093188;27;45088;-90
2022/08/18 07:17:21;;;;;;;;;22.25;20.00;;;;;20.80;87.26;100798.44;5107786;27;45142;-89
2022/08/18 07:20:07;;;;;;;;;20.75;19.75;;;;;20.86;86.64;100803.75;5108608;27;45018;-88
2022/08/18 07:22:51;;;;;;;;;19.25;18.75;;;;;20.93;86.11;100801.91;5106278;27;47016;-89
2022/08/18 07:25:31;;;;;;;;;25.00;23.25;;;;;20.94;86.03;100796.56;5091260;27;45248;-87
2022/08/18 07:28:00;;;;;;;;;21.00;19.75;;;;;20.79;85.90;100768.19;5092093;27;45386;-89
2022/08/18 07:30:25;;;;;;;;;20.00;18.50;;;;;20.96;85.60;100792.09;5108644;27;45172;-87
2022/08/18 07:32:51;;;;;;;;;24.00;22.67;;;;;21.00;85.51;100798.31;5092777;27;45609;-90
2022/08/18 07:35:23;;;;;;;;;21.50;20.50;;;;;21.05;86.24;100791.16;5107919;27;45006;-90
2022/08/18 07:37:58;;;;;;;;;23.25;22.50;;;;;21.07;86.31;100798.22;5091462;28;45158;-90
2022/08/18 07:40:30;;;;;;;;;24.75;24.25;;;;;21.13;85.72;100797.28;5105503;27;45276;-90
2022/08/18 07:43:00;;;;;;;;;25.25;23.50;;;;;21.20;86.05;100801.72;5090892;27;45634;-90
2022/08/18 07:45:39;;;;;;;;;26.50;25.50;;;;;21.27;85.09;100800.75;5091305;28;45478;-89
2022/08/18 07:48:12;;;;;;;;;27.00;24.50;;;;;21.14;84.75;100777.72;5089453;28;45002;-89
2022/08/18 07:51:02;;;;;;;;;27.25;26.00;;;;;21.32;84.53;100814.13;5090695;28;45236;-90
2022/08/18 07:54:09;;;;;;;;;25.50;24.50;;;;;21.36;85.51;100807.84;5084196;28;47665;-85
2022/08/18 07:57:22;;;;;;;;;24.50;23.25;;;;;21.43;84.78;100817.59;5089900;28;45760;-89
2022/08/18 07:59:54;;;;;;;;;26.00;23.75;;;;;21.49;85.05;100816.66;5086113;28;45198;-84
2022/08/18 08:02:45;;;;;;;;;27.00;25.00;;;;;21.44;84.96;100807.78;5090165;28;45064;-89
2022/08/18 08:05:33;;;;;;;;;25.25;24.75;;;;;21.55;85.62;100811.25;5107213;27;47635;-89
2022/08/18 08:08:09;;;;;;;;;26.50;26.25;;;;;21.57;85.52;100809.44;5091378;28;45581;-87
2022/08/18 08:11:05;;;;;;;;;27.50;25.50;;;;;21.33;84.46;100762.44;5089961;27;45392;-88
2022/08/18 08:14:06;;;;;;;;;28.75;26.75;;;;;21.59;85.22;100807.66;5092315;28;45172;-89
2022/08/18 08:16:46;;;;;;;;;31.75;30.50;;;;;21.62;85.22;100797.81;5090440;28;47296;-91
2022/08/18 08:19:33;;;;;;;;;29.75;28.75;;;;;21.72;85.33;100792.34;5092133;27;45515;-88
2022/08/18 08:22:28;;;;;;;;;31.00;30.25;;;;;21.69;85.20;100785.25;5092275;27;44962;-90
2022/08/18 08:25:18;;;;;;;;;35.00;31.75;;;;;21.69;85.16;100787.94;5107800;27;44880;-90
2022/08/18 08:28:06;;;;;;;;;34.75;32.00;;;;;21.58;84.46;100761.28;5106427;27;47244;-90
2022/08/18 08:30:35;;;;;;;;;33.00;31.50;;;;;21.63;84.45;100771.94;5090545;28;45534;-87
2022/08/18 08:33:30;;;;;;;;;35.00;33.00;;;;;21.60;84.40;100763.94;5107868;27;44974;-90
2022/08/18 08:36:13;;;;;;;;;36.00;32.75;;;;;21.71;84.29;100780.75;5091461;27;45360;-87
2022/08/18 08:39:00;;;;;;;;;35.00;32.50;;;;;21.42;85.10;100727.56;5091148;27;46400;-90
2022/08/18 08:41:49;;;;;;;;;36.75;33.25;;;;;21.52;85.07;100744.41;5090250;28;45688;-89
2022/08/18 08:44:21;;;;;;;;;36.00;33.00;;;;;21.80;85.90;100787.81;5111344;27;45225;-88
2022/08/18 08:46:56;;;;;;;;;39.25;33.75;;;;;21.68;85.50;100769.22;5095979;27;45021;-89
2022/08/18 08:49:21;;;;;;;;;36.50;33.75;;;;;21.87;84.23;100797.53;5095809;28;45205;-90
2022/08/18 08:51:55;;;;;;;;;36.67;33.33;;;;;21.90;85.12;100794.81;5111308;27;45138;-89
2022/08/18 08:54:27;;;;;;;;;36.50;33.25;;;;;21.75;85.66;100769.13;5095094;27;45087;-88
2022/08/18 08:56:55;;;;;;;;;38.00;34.25;;;;;21.96;85.10;100799.22;5093591;27;44862;-89
2022/08/18 08:59:22;;;;;;;;;40.25;35.00;;;;;21.83;85.32;100764.59;5092653;28;47124;-91
2022/08/18 09:02:15;;;;;;;;;35.75;32.00;;;;;21.96;83.94;100772.47;5095073;27;45739;-90
2022/08/18 09:05:01;;;;;;;;;32.75;31.25;;;;;21.93;84.13;100778.75;5092825;27;44931;-89
2022/08/18 09:08:14;;;;;;;;;38.50;34.25;;;;;22.11;83.88;100786.56;5124668;27;44727;-89
2022/08/18 09:11:13;;;;;;;;;30.50;28.25;;;;;22.15;83.45;100799.03;5102725;27;45871;-88
2022/08/18 09:13:38;;;;;;;;;32.00;30.00;;;;;22.21;83.58;100795.38;5111624;27;45377;-89
2022/08/18 09:16:14;;;;;;;;;32.33;29.67;;;;;22.27;83.38;100802.47;5109147;27;45016;-90
2022/08/18 09:18:58;;;;;;;;;30.75;29.50;;;;;22.15;83.41;100774.94;5113199;27;44941;-90
2022/08/18 09:22:05;;;;;;;;;35.75;32.50;;;;;22.30;83.07;100786.34;5097390;27;46005;-89
2022/08/18 09:24:48;;;;;;;;;31.75;30.50;;;;;22.41;84.03;100795.13;5094879;27;45106;-89
2022/08/18 09:27:42;;;;;;;;;27.50;25.75;;;;;22.49;83.71;100795.03;5090381;27;45523;-91
2022/08/18 09:30:46;;;;;;;;;29.25;27.50;;;;;22.53;81.69;100797.66;5089516;28;45195;-89
2022/08/18 09:33:19;;;;;;;;;22.75;22.25;;;;;22.49;81.39;100781.63;5095109;27;45612;-89
2022/08/18 09:35:58;;;;;;;;;25.50;23.00;;;;;22.76;81.66;100801.78;5111092;27;45205;-89
2022/08/18 09:41:32;;;;;;;;;21.25;21.00;;;;;22.74;80.05;100785.72;5092443;28;45095;-88
2022/08/18 09:44:39;;;;;;;;;18.50;17.50;;;;;22.94;79.16;100806.03;5095672;28;46022;-89
2022/08/18 09:47:04;;;;;;;;;20.50;19.50;;;;;22.77;78.69;100777.66;5099921;27;45492;-88
2022/08/18 09:49:39;;;;;;;;;21.50;20.50;;;;;23.04;78.85;100823.75;5123983;27;44700;-86
2022/08/18 09:52:22;;;;;;;;;21.75;20.75;;;;;23.09;78.05;100816.50;5108720;27;45128;-86
2022/08/18 09:54:57;;;;;;;;;21.00;19.00;;;;;23.14;77.40;100809.28;5124469;27;47246;-87
2022/08/18 09:57:26;;;;;;;;;19.25;17.75;;;;;23.19;76.83;100815.44;5107537;27;44990;-90
2022/08/18 09:59:56;;;;;;;;;19.50;18.25;;;;;23.16;76.82;100804.78;5110165;27;45264;-91
2022/08/18 10:02:25;;;;;;;;;17.50;17.50;;;;;23.27;76.95;100804.63;5109966;27;45316;-91
2022/08/18 10:05:16;;;;;;;;;22.50;19.50;;;;;23.32;76.23;100802.75;5110271;27;47923;-89
2022/08/18 10:08:04;;;;;;;;;18.50;18.25;;;;;23.37;76.21;100800.88;5094616;27;45438;-91
2022/08/18 10:10:43;;;;;;;;;18.75;17.50;;;;;23.39;76.51;100793.66;5110388;27;44970;-92
2022/08/18 10:13:29;;;;;;;;;21.75;20.75;;;;;23.46;75.51;100789.97;5110602;27;45091;-90
2022/08/18 10:16:04;;;;;;;;;18.00;17.25;;;;;23.52;75.66;100786.28;5093629;27;45744;-91
2022/08/18 10:18:41;;;;;;;;;17.25;15.75;;;;;23.58;74.61;100778.13;5110031;27;45212;-90
2022/08/18 10:21:20;;;;;;;;;16.00;15.50;;;;;23.63;74.70;100777.16;5094202;28;45561;-91
2022/08/18 10:23:53;;;;;;;;;18.75;18.75;;;;;23.70;74.63;100779.75;5109449;27;44984;-90
2022/08/18 10:26:31;;;;;;;;;18.50;17.75;;;;;23.87;73.55;100780.28;5090662;28;47712;-89
2022/08/18 10:29:05;;;;;;;;;17.25;16.75;;;;;24.12;72.63;100770.81;5109766;27;45102;-91
2022/08/18 10:31:56;;;;;;;;;18.25;17.00;;;;;24.07;72.12;100769.16;5094246;27;45192;-91
2022/08/18 10:34:41;;;;;;;;;15.50;14.75;;;;;24.19;72.24;100763.53;5094276;27;45153;-90
2022/08/18 10:37:18;;;;;;;;;17.25;16.25;;;;;23.96;72.90;100744.34;5109386;27;47750;-90
2022/08/18 10:39:48;;;;;;;;;15.50;14.75;;;;;24.00;72.29;100738.00;5093521;27;45379;-90
2022/08/18 10:42:30;;;;;;;;;16.75;16.00;;;;;24.03;71.80;100732.53;5091381;27;45016;-91
2022/08/18 10:45:06;;;;;;;;;15.00;14.00;;;;;24.37;70.41;100759.59;5094641;27;45354;-90
2022/08/18 10:47:32;;;;;;;;;12.00;11.00;;;;;24.32;69.88;100751.59;5093778;27;45743;-91
2022/08/18 10:50:03;;;;;;;;;16.50;15.00;;;;;24.44;69.22;100739.75;5092929;27;45035;-88
2022/08/18 10:52:36;;;;;;;;;14.00;13.25;;;;;24.50;68.74;100734.22;5093926;27;45186;-92
2022/08/18 10:55:20;;;;;;;;;12.00;12.00;;;;;24.73;66.88;100759.66;5109411;27;45118;-92
2022/08/18 10:58:01;;;;;;;;;12.25;12.25;;;;;24.80;67.01;100748.75;5109342;27;47185;-90
2022/08/18 11:00:58;;;;;;;;;14.00;12.50;;;;;24.64;67.61;100721.34;5093857;27;45172;-90
2022/08/18 11:03:37;;;;;;;;;12.75;12.75;;;;;24.93;66.00;100757.41;5111160;27;45002;-93
2022/08/18 11:06:08;;;;;;;;;12.25;11.50;;;;;24.94;65.71;100749.28;5111290;27;45153;-89
2022/08/18 11:08:43;;;;;;;;;13.25;12.75;;;;;25.09;65.03;100745.38;5093185;27;47252;-92
2022/08/18 11:11:11;;;;;;;;;12.00;11.75;;;;;25.00;64.10;100718.69;5108372;27;45424;-90
2022/08/18 11:14:00;;;;;;;;;12.75;12.75;;;;;25.23;64.62;100747.72;5109327;27;45036;-92
2022/08/18 11:16:48;;;;;;;;;13.00;11.50;;;;;25.34;65.35;100736.69;5096594;27;45070;-92
2022/08/18 11:19:15;;;;;;;;;15.25;15.25;;;;;25.26;64.08;100714.47;5093535;27;45358;-92
2022/08/18 11:21:44;;;;;;;;;14.00;14.00;;;;;25.35;64.07;100724.97;5092924;27;45116;-90
2022/08/18 11:24:23;;;;;;;;;12.50;12.00;;;;;25.54;63.27;100746.91;5092711;27;44895;-87
2022/08/18 11:26:53;;;;;;;;;13.25;12.25;;;;;25.62;64.05;100752.97;5091413;27;45404;-92
2022/08/18 11:29:30;;;;;;;;;9.00;9.00;;;;;25.68;63.25;100744.72;5092790;28;46067;-92
2022/08/18 11:32:01;;;;;;;;;10.25;10.00;;;;;25.68;62.99;100740.22;5108824;27;45444;-91
2022/08/18 11:34:33;;;;;;;;;12.25;11.25;;;;;25.80;63.06;100735.44;5093442;27;44916;-89
2022/08/18 11:37:03;;;;;;;;;12.25;11.75;;;;;25.84;61.33;100732.63;5091510;28;45307;-92
2022/08/18 11:39:29;;;;;;;;;12.00;11.75;;;;;25.94;62.17;100735.94;5092709;27;45408;-91
2022/08/18 11:41:56;;;;;;;;;10.25;10.25;;;;;25.86;60.51;100701.16;5124531;27;44926;-92
2022/08/18 11:44:30;;;;;;;;;12.00;9.75;;;;;26.05;60.54;100728.41;5108686;27;44664;-91
2022/08/18 11:47:15;;;;;;;;;9.00;9.00;;;;;26.02;60.10;100712.34;5091284;28;45285;-92
2022/08/18 11:49:53;;;;;;;;;9.25;8.75;;;;;26.13;59.73;100723.69;5092969;27;45280;-91
2022/08/18 11:52:26;;;;;;;;;10.75;9.75;;;;;26.29;59.84;100726.78;5108445;27;45088;-88
2022/08/18 11:54:57;;;;;;;;;10.00;10.00;;;;;26.35;59.90;100726.59;5114930;27;44907;-88